sensor_id;sensor_type;location;lat;lon;timestamp;temperature;humidity
60027;DHT22;45891;53.006;6.512;2022-08-21T00:01:20;16.30;99.90
60027;DHT22;45891;53.006;6.512;2022-08-21T00:03:48;16.30;99.90
60027;DHT22;45891;53.006;6.512;2022-08-21T00:06:14;16.30;99.90
60027;DHT22;45891;53.006;6.512;2022-08-21T00:08:41;16.20;99.90
60027;DHT22;45891;53.006;6.512;2022-08-21T00:11:07;16.20;99.90
60027;DHT22;45891;53.006;6.512;2022-08-21T00:13:34;16.20;99.90
60027;DHT22;45891;53.006;6.512;2022-08-21T00:16:01;16.20;99.90
60027;DHT22;45891;53.006;6.512;2022-08-21T00:18:28;16.10;99.90
60027;DHT22;45891;53.006;6.512;2022-08-21T00:20:54;16.10;99.90
60027;DHT22;45891;53.006;6.512;2022-08-21T00:23:21;16.10;99.90
60027;DHT22;45891;53.006;6.512;2022-08-21T00:25:48;16.00;99.90
60027;DHT22;45891;53.006;6.512;2022-08-21T00:28:14;16.00;99.90
60027;DHT22;45891;53.006;6.512;2022-08-21T00:30:41;16.00;99.90
60027;DHT22;45891;53.006;6.512;2022-08-21T00:33:08;16.00;99.90
60027;DHT22;45891;53.006;6.512;2022-08-21T00:35:38;15.90;99.90
60027;DHT22;45891;53.006;6.512;2022-08-21T00:38:06;15.90;99.90
60027;DHT22;45891;53.006;6.512;2022-08-21T00:40:48;15.90;99.90
60027;DHT22;45891;53.006;6.512;2022-08-21T00:43:18;15.90;99.90
60027;DHT22;45891;53.006;6.512;2022-08-21T00:45:44;15.80;99.90
60027;DHT22;45891;53.006;6.512;2022-08-21T00:48:11;15.70;99.90
60027;DHT22;45891;53.006;6.512;2022-08-21T00:50:42;15.70;99.90
60027;DHT22;45891;53.006;6.512;2022-08-21T00:53:10;15.70;99.90
60027;DHT22;45891;53.006;6.512;2022-08-21T00:55:37;15.60;99.90
60027;DHT22;45891;53.006;6.512;2022-08-21T00:58:06;15.60;99.90
60027;DHT22;45891;53.006;6.512;2022-08-21T01:00:35;15.50;99.90
60027;DHT22;45891;53.006;6.512;2022-08-21T01:03:08;15.50;99.90
60027;DHT22;45891;53.006;6.512;2022-08-21T01:05:35;15.40;99.90
60027;DHT22;45891;53.006;6.512;2022-08-21T01:08:03;15.40;99.90
60027;DHT22;45891;53.006;6.512;2022-08-21T01:10:30;15.30;99.90
60027;DHT22;45891;53.006;6.512;2022-08-21T01:12:57;15.30;99.90
60027;DHT22;45891;53.006;6.512;2022-08-21T01:15:30;15.30;99.90
60027;DHT22;45891;53.006;6.512;2022-08-21T01:17:57;15.20;99.90
60027;DHT22;45891;53.006;6.512;2022-08-21T01:20:23;15.20;99.90
60027;DHT22;45891;53.006;6.512;2022-08-21T01:22:49;15.20;99.90
60027;DHT22;45891;53.006;6.512;2022-08-21T01:25:17;15.10;99.90
60027;DHT22;45891;53.006;6.512;2022-08-21T01:27:46;15.10;99.90
60027;DHT22;45891;53.006;6.512;2022-08-21T01:30:16;15.10;99.90
60027;DHT22;45891;53.006;6.512;2022-08-21T01:32:42;15.10;99.90
60027;DHT22;45891;53.006;6.512;2022-08-21T01:35:09;15.10;99.90
60027;DHT22;45891;53.006;6.512;2022-08-21T01:37:37;15.10;99.90
60027;DHT22;45891;53.006;6.512;2022-08-21T01:40:05;15.00;99.90
60027;DHT22;45891;53.006;6.512;2022-08-21T01:42:32;15.00;99.90
60027;DHT22;45891;53.006;6.512;2022-08-21T01:44:58;15.00;99.90
60027;DHT22;45891;53.006;6.512;2022-08-21T01:47:24;15.00;99.90
60027;DHT22;45891;53.006;6.512;2022-08-21T01:49:51;15.10;99.90
60027;DHT22;45891;53.006;6.512;2022-08-21T01:52:17;15.00;99.90
60027;DHT22;45891;53.006;6.512;2022-08-21T01:54:45;15.00;99.90
60027;DHT22;45891;53.006;6.512;2022-08-21T01:57:11;15.00;99.90
60027;DHT22;45891;53.006;6.512;2022-08-21T01:59:38;15.00;99.90
60027;DHT22;45891;53.006;6.512;2022-08-21T02:02:05;14.90;99.90
60027;DHT22;45891;53.006;6.512;2022-08-21T02:04:32;14.90;99.90
60027;DHT22;45891;53.006;6.512;2022-08-21T02:06:59;14.90;99.90
60027;DHT22;45891;53.006;6.512;2022-08-21T02:09:26;15.00;99.90
60027;DHT22;45891;53.006;6.512;2022-08-21T02:11:52;14.90;99.90
60027;DHT22;45891;53.006;6.512;2022-08-21T02:14:19;14.90;99.90
60027;DHT22;45891;53.006;6.512;2022-08-21T02:16:46;14.90;99.90
60027;DHT22;45891;53.006;6.512;2022-08-21T02:19:14;14.90;99.90
60027;DHT22;45891;53.006;6.512;2022-08-21T02:21:41;14.90;99.90
60027;DHT22;45891;53.006;6.512;2022-08-21T02:24:08;14.90;99.90
60027;DHT22;45891;53.006;6.512;2022-08-21T02:26:35;14.90;99.90
60027;DHT22;45891;53.006;6.512;2022-08-21T02:29:02;14.90;99.90
60027;DHT22;45891;53.006;6.512;2022-08-21T02:31:29;14.90;99.90
60027;DHT22;45891;53.006;6.512;2022-08-21T02:33:55;14.90;99.90
60027;DHT22;45891;53.006;6.512;2022-08-21T02:36:21;14.90;99.90
60027;DHT22;45891;53.006;6.512;2022-08-21T02:38:47;14.80;99.90
60027;DHT22;45891;53.006;6.512;2022-08-21T02:41:16;14.90;99.90
60027;DHT22;45891;53.006;6.512;2022-08-21T02:43:43;14.80;99.90
60027;DHT22;45891;53.006;6.512;2022-08-21T02:46:12;14.80;99.90
60027;DHT22;45891;53.006;6.512;2022-08-21T02:48:38;14.80;99.90
60027;DHT22;45891;53.006;6.512;2022-08-21T02:51:11;14.80;99.90
60027;DHT22;45891;53.006;6.512;2022-08-21T02:53:38;14.80;99.90
60027;DHT22;45891;53.006;6.512;2022-08-21T02:56:07;14.80;99.90
60027;DHT22;45891;53.006;6.512;2022-08-21T02:58:39;14.70;99.90
60027;DHT22;45891;53.006;6.512;2022-08-21T03:01:07;14.70;99.90
60027;DHT22;45891;53.006;6.512;2022-08-21T03:03:36;14.70;99.90
60027;DHT22;45891;53.006;6.512;2022-08-21T03:06:03;14.70;99.90
60027;DHT22;45891;53.006;6.512;2022-08-21T03:08:30;14.70;99.90
60027;DHT22;45891;53.006;6.512;2022-08-21T03:10:56;14.70;99.90
60027;DHT22;45891;53.006;6.512;2022-08-21T03:13:23;14.60;99.90
60027;DHT22;45891;53.006;6.512;2022-08-21T03:15:49;14.60;99.90
60027;DHT22;45891;53.006;6.512;2022-08-21T03:18:16;14.60;99.90
60027;DHT22;45891;53.006;6.512;2022-08-21T03:20:43;14.60;99.90
60027;DHT22;45891;53.006;6.512;2022-08-21T03:23:11;14.50;99.90
60027;DHT22;45891;53.006;6.512;2022-08-21T03:25:38;14.50;99.90
60027;DHT22;45891;53.006;6.512;2022-08-21T03:28:08;14.50;99.90
60027;DHT22;45891;53.006;6.512;2022-08-21T03:30:35;14.40;99.90
60027;DHT22;45891;53.006;6.512;2022-08-21T03:33:02;14.40;99.90
60027;DHT22;45891;53.006;6.512;2022-08-21T03:35:29;14.40;99.90
60027;DHT22;45891;53.006;6.512;2022-08-21T03:37:55;14.40;99.90
60027;DHT22;45891;53.006;6.512;2022-08-21T03:40:22;14.40;99.90
60027;DHT22;45891;53.006;6.512;2022-08-21T03:42:50;14.40;99.90
60027;DHT22;45891;53.006;6.512;2022-08-21T03:45:20;14.40;99.90
60027;DHT22;45891;53.006;6.512;2022-08-21T03:47:57;14.40;99.90
60027;DHT22;45891;53.006;6.512;2022-08-21T03:50:25;14.40;99.90
60027;DHT22;45891;53.006;6.512;2022-08-21T03:52:51;14.40;99.90
60027;DHT22;45891;53.006;6.512;2022-08-21T03:55:18;14.40;99.90
60027;DHT22;45891;53.006;6.512;2022-08-21T03:57:44;14.40;99.90
60027;DHT22;45891;53.006;6.512;2022-08-21T04:00:13;14.40;99.90
60027;DHT22;45891;53.006;6.512;2022-08-21T04:02:41;14.40;99.90
60027;DHT22;45891;53.006;6.512;2022-08-21T04:05:09;14.40;99.90
60027;DHT22;45891;53.006;6.512;2022-08-21T04:07:36;14.40;99.90
60027;DHT22;45891;53.006;6.512;2022-08-21T04:10:04;14.40;99.90
60027;DHT22;45891;53.006;6.512;2022-08-21T04:12:31;14.40;99.90
60027;DHT22;45891;53.006;6.512;2022-08-21T04:14:57;14.40;99.90
60027;DHT22;45891;53.006;6.512;2022-08-21T04:17:24;14.40;99.90
60027;DHT22;45891;53.006;6.512;2022-08-21T04:19:50;14.50;99.90
60027;DHT22;45891;53.006;6.512;2022-08-21T04:22:16;14.40;99.90
60027;DHT22;45891;53.006;6.512;2022-08-21T04:24:42;14.40;99.90
60027;DHT22;45891;53.006;6.512;2022-08-21T04:27:09;14.40;99.90
60027;DHT22;45891;53.006;6.512;2022-08-21T04:29:35;14.40;99.90
60027;DHT22;45891;53.006;6.512;2022-08-21T04:32:01;14.50;99.90
60027;DHT22;45891;53.006;6.512;2022-08-21T04:34:27;14.40;99.90
60027;DHT22;45891;53.006;6.512;2022-08-21T04:36:53;14.50;99.90
60027;DHT22;45891;53.006;6.512;2022-08-21T04:39:19;14.40;99.90
60027;DHT22;45891;53.006;6.512;2022-08-21T04:41:45;14.50;99.90
60027;DHT22;45891;53.006;6.512;2022-08-21T04:44:12;14.50;99.90
60027;DHT22;45891;53.006;6.512;2022-08-21T04:46:38;14.50;99.90
60027;DHT22;45891;53.006;6.512;2022-08-21T04:49:04;14.50;99.90
60027;DHT22;45891;53.006;6.512;2022-08-21T04:51:33;14.60;99.90
60027;DHT22;45891;53.006;6.512;2022-08-21T04:54:17;14.60;99.90
60027;DHT22;45891;53.006;6.512;2022-08-21T04:56:54;14.70;99.90
60027;DHT22;45891;53.006;6.512;2022-08-21T04:59:28;14.70;99.90
60027;DHT22;45891;53.006;6.512;2022-08-21T05:01:55;14.70;99.90
60027;DHT22;45891;53.006;6.512;2022-08-21T05:04:25;14.70;99.90
60027;DHT22;45891;53.006;6.512;2022-08-21T05:06:54;14.70;99.90
60027;DHT22;45891;53.006;6.512;2022-08-21T05:09:23;14.80;99.90
60027;DHT22;45891;53.006;6.512;2022-08-21T05:11:50;14.80;99.90
60027;DHT22;45891;53.006;6.512;2022-08-21T05:14:18;14.90;99.90
60027;DHT22;45891;53.006;6.512;2022-08-21T05:16:46;14.90;99.90
60027;DHT22;45891;53.006;6.512;2022-08-21T05:19:12;14.90;99.90
60027;DHT22;45891;53.006;6.512;2022-08-21T05:21:42;15.00;99.90
60027;DHT22;45891;53.006;6.512;2022-08-21T05:24:09;15.00;99.90
60027;DHT22;45891;53.006;6.512;2022-08-21T05:26:36;15.10;99.90
60027;DHT22;45891;53.006;6.512;2022-08-21T05:29:03;15.00;99.90
60027;DHT22;45891;53.006;6.512;2022-08-21T05:31:29;15.10;99.90
60027;DHT22;45891;53.006;6.512;2022-08-21T05:33:56;15.10;99.90
60027;DHT22;45891;53.006;6.512;2022-08-21T05:36:23;15.20;99.90
60027;DHT22;45891;53.006;6.512;2022-08-21T05:38:49;15.20;99.90
60027;DHT22;45891;53.006;6.512;2022-08-21T05:41:16;15.30;99.90
60027;DHT22;45891;53.006;6.512;2022-08-21T05:43:42;15.30;99.90
60027;DHT22;45891;53.006;6.512;2022-08-21T05:46:08;15.40;99.90
60027;DHT22;45891;53.006;6.512;2022-08-21T05:48:35;15.40;99.90
60027;DHT22;45891;53.006;6.512;2022-08-21T05:51:10;15.50;99.90
60027;DHT22;45891;53.006;6.512;2022-08-21T05:53:38;15.50;99.90
60027;DHT22;45891;53.006;6.512;2022-08-21T05:56:04;15.60;99.90
60027;DHT22;45891;53.006;6.512;2022-08-21T05:58:32;15.60;99.90
60027;DHT22;45891;53.006;6.512;2022-08-21T06:00:59;15.70;99.90
60027;DHT22;45891;53.006;6.512;2022-08-21T06:03:29;15.70;99.90
60027;DHT22;45891;53.006;6.512;2022-08-21T06:05:56;15.80;99.90
60027;DHT22;45891;53.006;6.512;2022-08-21T06:08:23;15.90;99.90
60027;DHT22;45891;53.006;6.512;2022-08-21T06:10:51;16.00;99.90
60027;DHT22;45891;53.006;6.512;2022-08-21T06:13:19;16.00;99.90
60027;DHT22;45891;53.006;6.512;2022-08-21T06:15:45;16.10;99.90
60027;DHT22;45891;53.006;6.512;2022-08-21T06:18:12;16.20;99.90
60027;DHT22;45891;53.006;6.512;2022-08-21T06:20:39;16.20;99.90
60027;DHT22;45891;53.006;6.512;2022-08-21T06:23:05;16.30;99.90
60027;DHT22;45891;53.006;6.512;2022-08-21T06:25:31;16.50;99.90
60027;DHT22;45891;53.006;6.512;2022-08-21T06:28:09;16.90;99.90
60027;DHT22;45891;53.006;6.512;2022-08-21T06:30:37;17.30;99.90
60027;DHT22;45891;53.006;6.512;2022-08-21T06:33:04;17.70;99.90
60027;DHT22;45891;53.006;6.512;2022-08-21T06:35:30;18.00;99.90
60027;DHT22;45891;53.006;6.512;2022-08-21T06:37:57;18.20;99.90
60027;DHT22;45891;53.006;6.512;2022-08-21T06:40:24;18.40;99.90
60027;DHT22;45891;53.006;6.512;2022-08-21T06:42:50;18.70;99.90
60027;DHT22;45891;53.006;6.512;2022-08-21T06:45:16;18.80;99.90
60027;DHT22;45891;53.006;6.512;2022-08-21T06:47:42;18.90;99.90
60027;DHT22;45891;53.006;6.512;2022-08-21T06:50:09;19.10;99.90
60027;DHT22;45891;53.006;6.512;2022-08-21T06:52:36;19.20;99.90
60027;DHT22;45891;53.006;6.512;2022-08-21T06:55:06;19.50;99.90
60027;DHT22;45891;53.006;6.512;2022-08-21T06:57:33;19.70;99.90
60027;DHT22;45891;53.006;6.512;2022-08-21T06:59:59;19.90;99.90
60027;DHT22;45891;53.006;6.512;2022-08-21T07:02:26;20.10;99.90
60027;DHT22;45891;53.006;6.512;2022-08-21T07:04:52;20.10;99.90
60027;DHT22;45891;53.006;6.512;2022-08-21T07:07:18;20.20;99.90
60027;DHT22;45891;53.006;6.512;2022-08-21T07:09:44;20.40;99.90
60027;DHT22;45891;53.006;6.512;2022-08-21T07:12:10;20.50;99.90
60027;DHT22;45891;53.006;6.512;2022-08-21T07:14:36;20.60;99.90
60027;DHT22;45891;53.006;6.512;2022-08-21T07:17:03;20.70;99.90
60027;DHT22;45891;53.006;6.512;2022-08-21T07:19:29;20.80;99.90
60027;DHT22;45891;53.006;6.512;2022-08-21T07:21:59;20.90;99.90
60027;DHT22;45891;53.006;6.512;2022-08-21T07:24:25;21.10;99.90
60027;DHT22;45891;53.006;6.512;2022-08-21T07:26:52;21.10;99.90
60027;DHT22;45891;53.006;6.512;2022-08-21T07:29:18;21.30;99.90
60027;DHT22;45891;53.006;6.512;2022-08-21T07:31:44;21.40;99.90
60027;DHT22;45891;53.006;6.512;2022-08-21T07:34:10;21.50;99.90
60027;DHT22;45891;53.006;6.512;2022-08-21T07:36:37;21.60;99.90
60027;DHT22;45891;53.006;6.512;2022-08-21T07:39:03;21.80;99.90
60027;DHT22;45891;53.006;6.512;2022-08-21T07:41:29;22.00;99.90
60027;DHT22;45891;53.006;6.512;2022-08-21T07:43:56;22.00;99.90
60027;DHT22;45891;53.006;6.512;2022-08-21T07:46:23;22.10;99.90
60027;DHT22;45891;53.006;6.512;2022-08-21T07:48:50;22.20;99.90
60027;DHT22;45891;53.006;6.512;2022-08-21T07:51:18;22.20;99.90
60027;DHT22;45891;53.006;6.512;2022-08-21T07:53:49;22.00;99.40
60027;DHT22;45891;53.006;6.512;2022-08-21T07:56:16;22.00;99.90
60027;DHT22;45891;53.006;6.512;2022-08-21T07:58:42;22.10;99.90
60027;DHT22;45891;53.006;6.512;2022-08-21T08:01:08;22.20;99.70
60027;DHT22;45891;53.006;6.512;2022-08-21T08:03:34;22.30;99.60
60027;DHT22;45891;53.006;6.512;2022-08-21T08:06:01;22.50;98.70
60027;DHT22;45891;53.006;6.512;2022-08-21T08:08:27;22.60;99.10
60027;DHT22;45891;53.006;6.512;2022-08-21T08:10:56;22.50;97.90
60027;DHT22;45891;53.006;6.512;2022-08-21T08:13:23;22.60;98.70
60027;DHT22;45891;53.006;6.512;2022-08-21T08:15:49;22.80;99.10
60027;DHT22;45891;53.006;6.512;2022-08-21T08:18:15;22.90;98.60
60027;DHT22;45891;53.006;6.512;2022-08-21T08:20:42;22.90;98.00
60027;DHT22;45891;53.006;6.512;2022-08-21T08:23:12;23.00;97.20
60027;DHT22;45891;53.006;6.512;2022-08-21T08:25:38;23.10;97.20
60027;DHT22;45891;53.006;6.512;2022-08-21T08:28:05;23.30;97.60
60027;DHT22;45891;53.006;6.512;2022-08-21T08:30:32;23.50;97.10
60027;DHT22;45891;53.006;6.512;2022-08-21T08:32:58;23.70;97.20
60027;DHT22;45891;53.006;6.512;2022-08-21T08:35:26;23.80;97.00
60027;DHT22;45891;53.006;6.512;2022-08-21T08:37:52;24.00;96.70
60027;DHT22;45891;53.006;6.512;2022-08-21T08:40:25;24.20;96.40
60027;DHT22;45891;53.006;6.512;2022-08-21T08:42:55;24.30;95.10
60027;DHT22;45891;53.006;6.512;2022-08-21T08:45:22;24.30;96.40
60027;DHT22;45891;53.006;6.512;2022-08-21T08:48:03;24.60;95.50
60027;DHT22;45891;53.006;6.512;2022-08-21T08:50:45;24.80;96.00
60027;DHT22;45891;53.006;6.512;2022-08-21T08:53:16;24.90;95.70
60027;DHT22;45891;53.006;6.512;2022-08-21T08:55:45;25.10;95.70
60027;DHT22;45891;53.006;6.512;2022-08-21T08:58:20;25.10;94.70
60027;DHT22;45891;53.006;6.512;2022-08-21T09:00:50;25.10;95.40
60027;DHT22;45891;53.006;6.512;2022-08-21T09:03:17;25.40;94.70
60027;DHT22;45891;53.006;6.512;2022-08-21T09:05:54;25.30;94.90
60027;DHT22;45891;53.006;6.512;2022-08-21T09:08:44;25.30;94.70
60027;DHT22;45891;53.006;6.512;2022-08-21T09:11:28;25.30;94.80
60027;DHT22;45891;53.006;6.512;2022-08-21T09:17:19;25.50;94.10
60027;DHT22;45891;53.006;6.512;2022-08-21T09:25:25;26.00;94.00
60027;DHT22;45891;53.006;6.512;2022-08-21T09:27:52;26.20;94.40
60027;DHT22;45891;53.006;6.512;2022-08-21T09:30:24;26.40;94.40
60027;DHT22;45891;53.006;6.512;2022-08-21T09:32:51;26.70;94.20
60027;DHT22;45891;53.006;6.512;2022-08-21T09:35:19;27.00;93.60
60027;DHT22;45891;53.006;6.512;2022-08-21T09:37:56;27.10;93.40
60027;DHT22;45891;53.006;6.512;2022-08-21T09:42:59;27.60;92.90
60027;DHT22;45891;53.006;6.512;2022-08-21T09:45:25;27.90;92.80
60027;DHT22;45891;53.006;6.512;2022-08-21T09:47:52;27.90;92.00
60027;DHT22;45891;53.006;6.512;2022-08-21T09:50:26;27.80;92.10
60027;DHT22;45891;53.006;6.512;2022-08-21T09:52:58;27.80;91.80
60027;DHT22;45891;53.006;6.512;2022-08-21T09:55:30;27.80;91.30
60027;DHT22;45891;53.006;6.512;2022-08-21T09:58:32;27.40;91.40
60027;DHT22;45891;53.006;6.512;2022-08-21T10:01:00;27.20;91.60
60027;DHT22;45891;53.006;6.512;2022-08-21T10:03:27;27.20;91.70
60027;DHT22;45891;53.006;6.512;2022-08-21T10:06:02;26.90;91.50
60027;DHT22;45891;53.006;6.512;2022-08-21T10:08:32;26.20;91.40
60027;DHT22;45891;53.006;6.512;2022-08-21T10:11:12;25.80;92.10
60027;DHT22;45891;53.006;6.512;2022-08-21T10:14:13;25.60;92.50
60027;DHT22;45891;53.006;6.512;2022-08-21T10:17:24;25.10;92.70
60027;DHT22;45891;53.006;6.512;2022-08-21T10:19:48;24.70;93.20
60027;DHT22;45891;53.006;6.512;2022-08-21T10:27:47;24.90;94.10
60027;DHT22;45891;53.006;6.512;2022-08-21T10:35:29;26.70;93.10
60027;DHT22;45891;53.006;6.512;2022-08-21T10:40:44;27.80;92.60
60027;DHT22;45891;53.006;6.512;2022-08-21T10:48:51;28.70;87.90
60027;DHT22;45891;53.006;6.512;2022-08-21T10:51:42;28.90;87.30
60027;DHT22;45891;53.006;6.512;2022-08-21T10:57:27;28.80;85.40
60027;DHT22;45891;53.006;6.512;2022-08-21T11:00:08;29.30;85.60
60027;DHT22;45891;53.006;6.512;2022-08-21T11:03:11;29.40;84.20
60027;DHT22;45891;53.006;6.512;2022-08-21T11:05:48;29.30;80.50
60027;DHT22;45891;53.006;6.512;2022-08-21T11:08:26;29.40;82.10
60027;DHT22;45891;53.006;6.512;2022-08-21T11:11:04;29.50;79.60
60027;DHT22;45891;53.006;6.512;2022-08-21T11:13:35;29.40;81.80
60027;DHT22;45891;53.006;6.512;2022-08-21T11:16:37;29.30;80.60
60027;DHT22;45891;53.006;6.512;2022-08-21T11:19:23;28.60;78.80
60027;DHT22;45891;53.006;6.512;2022-08-21T11:25:12;27.70;81.60
60027;DHT22;45891;53.006;6.512;2022-08-21T11:28:17;27.30;81.80
60027;DHT22;45891;53.006;6.512;2022-08-21T11:30:25;26.90;82.00
60027;DHT22;45891;53.006;6.512;2022-08-21T11:33:05;26.50;82.80
60027;DHT22;45891;53.006;6.512;2022-08-21T11:36:00;26.20;83.30
60027;DHT22;45891;53.006;6.512;2022-08-21T11:38:39;26.10;84.60
60027;DHT22;45891;53.006;6.512;2022-08-21T11:41:25;25.80;85.00
60027;DHT22;45891;53.006;6.512;2022-08-21T11:46:50;25.50;86.40
60027;DHT22;45891;53.006;6.512;2022-08-21T11:49:43;25.10;88.00
60027;DHT22;45891;53.006;6.512;2022-08-21T11:57:48;24.80;90.20
60027;DHT22;45891;53.006;6.512;2022-08-21T12:00:26;25.50;90.60
60027;DHT22;45891;53.006;6.512;2022-08-21T12:03:28;25.80;89.60
60027;DHT22;45891;53.006;6.512;2022-08-21T12:06:01;25.60;90.10
60027;DHT22;45891;53.006;6.512;2022-08-21T12:08:31;25.30;90.50
60027;DHT22;45891;53.006;6.512;2022-08-21T12:16:53;24.80;91.50
60027;DHT22;45891;53.006;6.512;2022-08-21T12:24:41;24.90;92.40
60027;DHT22;45891;53.006;6.512;2022-08-21T12:29:50;24.90;92.30
60027;DHT22;45891;53.006;6.512;2022-08-21T12:34:46;24.40;92.40
60027;DHT22;45891;53.006;6.512;2022-08-21T12:37:36;24.20;92.50
60027;DHT22;45891;53.006;6.512;2022-08-21T12:40:04;24.10;93.00
60027;DHT22;45891;53.006;6.512;2022-08-21T12:42:43;23.80;92.60
60027;DHT22;45891;53.006;6.512;2022-08-21T12:45:45;23.70;92.90
60027;DHT22;45891;53.006;6.512;2022-08-21T12:48:28;23.50;93.20
60027;DHT22;45891;53.006;6.512;2022-08-21T12:51:13;23.40;93.40
60027;DHT22;45891;53.006;6.512;2022-08-21T12:53:42;23.30;93.90
60027;DHT22;45891;53.006;6.512;2022-08-21T12:56:13;23.20;94.10
60027;DHT22;45891;53.006;6.512;2022-08-21T12:58:43;23.50;94.10
60027;DHT22;45891;53.006;6.512;2022-08-21T13:01:38;23.70;94.10
60027;DHT22;45891;53.006;6.512;2022-08-21T13:04:19;23.90;94.20
60027;DHT22;45891;53.006;6.512;2022-08-21T13:06:50;23.90;93.90
60027;DHT22;45891;53.006;6.512;2022-08-21T13:09:19;23.80;94.10
60027;DHT22;45891;53.006;6.512;2022-08-21T13:11:47;23.80;93.90
60027;DHT22;45891;53.006;6.512;2022-08-21T13:14:29;23.50;93.60
60027;DHT22;45891;53.006;6.512;2022-08-21T13:16:59;23.50;93.70
60027;DHT22;45891;53.006;6.512;2022-08-21T13:19:27;23.40;93.70
60027;DHT22;45891;53.006;6.512;2022-08-21T13:21:55;23.40;94.00
60027;DHT22;45891;53.006;6.512;2022-08-21T13:24:30;23.50;93.90
60027;DHT22;45891;53.006;6.512;2022-08-21T13:26:56;23.60;93.80
60027;DHT22;45891;53.006;6.512;2022-08-21T13:29:28;23.80;94.00
60027;DHT22;45891;53.006;6.512;2022-08-21T13:32:01;24.30;93.00
60027;DHT22;45891;53.006;6.512;2022-08-21T13:34:36;24.40;93.20
60027;DHT22;45891;53.006;6.512;2022-08-21T13:37:07;24.40;93.00
60027;DHT22;45891;53.006;6.512;2022-08-21T13:39:34;24.50;93.10
60027;DHT22;45891;53.006;6.512;2022-08-21T13:42:03;24.70;92.60
60027;DHT22;45891;53.006;6.512;2022-08-21T13:46:58;25.30;91.20
60027;DHT22;45891;53.006;6.512;2022-08-21T13:49:34;25.70;91.40
60027;DHT22;45891;53.006;6.512;2022-08-21T13:52:00;26.20;90.50
60027;DHT22;45891;53.006;6.512;2022-08-21T13:54:34;26.20;90.20
60027;DHT22;45891;53.006;6.512;2022-08-21T13:57:02;26.60;90.40
60027;DHT22;45891;53.006;6.512;2022-08-21T13:59:31;26.90;88.20
60027;DHT22;45891;53.006;6.512;2022-08-21T14:04:54;27.50;87.50
60027;DHT22;45891;53.006;6.512;2022-08-21T14:07:25;27.70;87.10
60027;DHT22;45891;53.006;6.512;2022-08-21T14:09:52;28.20;85.40
60027;DHT22;45891;53.006;6.512;2022-08-21T14:12:26;28.70;82.50
60027;DHT22;45891;53.006;6.512;2022-08-21T14:14:55;28.90;81.30
60027;DHT22;45891;53.006;6.512;2022-08-21T14:17:29;28.70;82.30
60027;DHT22;45891;53.006;6.512;2022-08-21T14:19:56;29.10;81.70
60027;DHT22;45891;53.006;6.512;2022-08-21T14:22:42;28.60;77.90
60027;DHT22;45891;53.006;6.512;2022-08-21T14:28:02;28.90;77.60
60027;DHT22;45891;53.006;6.512;2022-08-21T14:30:35;29.10;78.80
60027;DHT22;45891;53.006;6.512;2022-08-21T14:33:03;29.30;75.70
60027;DHT22;45891;53.006;6.512;2022-08-21T14:35:30;29.20;74.30
60027;DHT22;45891;53.006;6.512;2022-08-21T14:37:57;28.80;75.00
60027;DHT22;45891;53.006;6.512;2022-08-21T14:40:24;28.30;75.20
60027;DHT22;45891;53.006;6.512;2022-08-21T14:42:51;28.30;76.30
60027;DHT22;45891;53.006;6.512;2022-08-21T14:47:45;28.40;75.40
60027;DHT22;45891;53.006;6.512;2022-08-21T14:50:13;28.60;75.30
60027;DHT22;45891;53.006;6.512;2022-08-21T14:52:40;28.60;76.10
60027;DHT22;45891;53.006;6.512;2022-08-21T14:55:07;28.50;75.00
60027;DHT22;45891;53.006;6.512;2022-08-21T14:57:36;27.70;75.70
60027;DHT22;45891;53.006;6.512;2022-08-21T15:00:05;27.00;77.00
60027;DHT22;45891;53.006;6.512;2022-08-21T15:02:31;27.50;78.20
60027;DHT22;45891;53.006;6.512;2022-08-21T15:04:57;27.80;76.90
60027;DHT22;45891;53.006;6.512;2022-08-21T15:07:23;27.60;77.70
60027;DHT22;45891;53.006;6.512;2022-08-21T15:09:49;28.20;77.50
60027;DHT22;45891;53.006;6.512;2022-08-21T15:12:16;28.20;78.70
60027;DHT22;45891;53.006;6.512;2022-08-21T15:14:42;28.50;78.20
60027;DHT22;45891;53.006;6.512;2022-08-21T15:17:09;28.20;77.30
60027;DHT22;45891;53.006;6.512;2022-08-21T15:19:36;27.20;76.40
60027;DHT22;45891;53.006;6.512;2022-08-21T15:22:03;26.70;78.00
60027;DHT22;45891;53.006;6.512;2022-08-21T15:24:29;26.50;78.00
60027;DHT22;45891;53.006;6.512;2022-08-21T15:26:58;26.20;78.70
60027;DHT22;45891;53.006;6.512;2022-08-21T15:29:25;26.30;79.00
60027;DHT22;45891;53.006;6.512;2022-08-21T15:32:02;26.40;78.40
60027;DHT22;45891;53.006;6.512;2022-08-21T15:34:30;26.30;78.10
60027;DHT22;45891;53.006;6.512;2022-08-21T15:36:57;26.20;78.40
60027;DHT22;45891;53.006;6.512;2022-08-21T15:39:25;25.80;78.50
60027;DHT22;45891;53.006;6.512;2022-08-21T15:41:52;26.30;78.60
60027;DHT22;45891;53.006;6.512;2022-08-21T15:44:18;26.80;79.00
60027;DHT22;45891;53.006;6.512;2022-08-21T15:46:45;27.30;76.50
60027;DHT22;45891;53.006;6.512;2022-08-21T15:49:11;27.60;76.40
60027;DHT22;45891;53.006;6.512;2022-08-21T15:51:38;27.10;76.30
60027;DHT22;45891;53.006;6.512;2022-08-21T15:54:04;27.40;76.90
60027;DHT22;45891;53.006;6.512;2022-08-21T15:56:35;27.60;74.80
60027;DHT22;45891;53.006;6.512;2022-08-21T15:59:06;27.50;75.50
60027;DHT22;45891;53.006;6.512;2022-08-21T16:01:34;27.60;74.60
60027;DHT22;45891;53.006;6.512;2022-08-21T16:04:02;27.20;75.30
60027;DHT22;45891;53.006;6.512;2022-08-21T16:06:28;27.00;75.30
60027;DHT22;45891;53.006;6.512;2022-08-21T16:08:55;26.70;75.60
60027;DHT22;45891;53.006;6.512;2022-08-21T16:11:21;26.00;75.70
60027;DHT22;45891;53.006;6.512;2022-08-21T16:13:48;25.70;77.30
60027;DHT22;45891;53.006;6.512;2022-08-21T16:16:24;25.40;77.50
60027;DHT22;45891;53.006;6.512;2022-08-21T16:18:51;25.70;77.30
60027;DHT22;45891;53.006;6.512;2022-08-21T16:21:17;25.70;77.00
60027;DHT22;45891;53.006;6.512;2022-08-21T16:23:43;25.40;77.40
60027;DHT22;45891;53.006;6.512;2022-08-21T16:26:12;25.20;78.50
60027;DHT22;45891;53.006;6.512;2022-08-21T16:28:41;25.30;79.00
60027;DHT22;45891;53.006;6.512;2022-08-21T16:31:08;25.20;79.10
60027;DHT22;45891;53.006;6.512;2022-08-21T16:33:38;24.90;78.90
60027;DHT22;45891;53.006;6.512;2022-08-21T16:36:06;24.80;79.30
60027;DHT22;45891;53.006;6.512;2022-08-21T16:38:34;24.60;79.30
60027;DHT22;45891;53.006;6.512;2022-08-21T16:41:04;24.40;80.70
60027;DHT22;45891;53.006;6.512;2022-08-21T16:43:32;24.20;81.20
60027;DHT22;45891;53.006;6.512;2022-08-21T16:45:58;23.90;81.60
60027;DHT22;45891;53.006;6.512;2022-08-21T16:48:25;23.80;82.50
60027;DHT22;45891;53.006;6.512;2022-08-21T16:50:51;23.70;82.30
60027;DHT22;45891;53.006;6.512;2022-08-21T16:53:17;23.80;82.70
60027;DHT22;45891;53.006;6.512;2022-08-21T16:55:43;23.90;82.70
60027;DHT22;45891;53.006;6.512;2022-08-21T16:58:15;24.00;82.90